sensor_id;sensor_type;location;lat;lon;timestamp;pressure;altitude;pressure_sealevel;temperature;humidity
79692;BME280;69158;55.592;37.610;2023-04-24T00:02:24;99318.00;;;11.46;39.44
79692;BME280;69158;55.592;37.610;2023-04-24T00:05:10;99318.00;;;11.46;39.68
79692;BME280;69158;55.592;37.610;2023-04-24T00:07:58;99303.78;;;11.33;39.85
79692;BME280;69158;55.592;37.610;2023-04-24T00:10:44;99304.78;;;11.26;40.39
79692;BME280;69158;55.592;37.610;2023-04-24T00:13:30;99314.41;;;11.19;40.80
79692;BME280;69158;55.592;37.610;2023-04-24T00:16:19;99321.69;;;11.17;40.15
79692;BME280;69158;55.592;37.610;2023-04-24T00:19:06;99285.56;;;10.98;39.85
79692;BME280;69158;55.592;37.610;2023-04-24T00:21:52;99310.06;;;11.05;40.56
79692;BME280;69158;55.592;37.610;2023-04-24T00:24:40;99312.59;;;11.19;39.92
79692;BME280;69158;55.592;37.610;2023-04-24T00:27:26;99297.31;;;11.02;40.38
79692;BME280;69158;55.592;37.610;2023-04-24T00:30:13;99311.94;;;11.11;40.13
79692;BME280;69158;55.592;37.610;2023-04-24T00:32:59;99312.31;;;11.08;39.88
79692;BME280;69158;55.592;37.610;2023-04-24T00:35:45;99314.75;;;11.09;38.58
79692;BME280;69158;55.592;37.610;2023-04-24T00:38:31;99300.22;;;11.13;38.88
79692;BME280;69158;55.592;37.610;2023-04-24T00:41:18;99296.34;;;11.09;39.49
79692;BME280;69158;55.592;37.610;2023-04-24T00:44:05;99324.09;;;11.18;39.46
79692;BME280;69158;55.592;37.610;2023-04-24T00:46:51;99321.22;;;11.13;39.28
79692;BME280;69158;55.592;37.610;2023-04-24T00:49:40;99323.25;;;11.11;39.25
79692;BME280;69158;55.592;37.610;2023-04-24T00:52:26;99321.63;;;11.10;39.37
79692;BME280;69158;55.592;37.610;2023-04-24T00:55:12;99320.22;;;11.14;38.85
79692;BME280;69158;55.592;37.610;2023-04-24T00:57:58;99312.59;;;11.19;39.29
79692;BME280;69158;55.592;37.610;2023-04-24T01:00:45;99313.75;;;11.10;39.82
79692;BME280;69158;55.592;37.610;2023-04-24T01:03:31;99314.72;;;11.03;39.12
79692;BME280;69158;55.592;37.610;2023-04-24T01:06:18;99307.78;;;10.95;41.17
79692;BME280;69158;55.592;37.610;2023-04-24T01:09:05;99300.41;;;10.84;39.36
79692;BME280;69158;55.592;37.610;2023-04-24T01:11:54;99298.44;;;10.86;39.26
79692;BME280;69158;55.592;37.610;2023-04-24T01:14:40;99279.63;;;10.82;38.98
79692;BME280;69158;55.592;37.610;2023-04-24T01:17:26;99291.16;;;10.88;38.50
79692;BME280;69158;55.592;37.610;2023-04-24T01:20:13;99286.31;;;10.85;40.31
79692;BME280;69158;55.592;37.610;2023-04-24T01:22:59;99302.19;;;10.77;40.36
79692;BME280;69158;55.592;37.610;2023-04-24T01:25:46;99255.13;;;10.48;40.12
79692;BME280;69158;55.592;37.610;2023-04-24T01:28:32;99292.19;;;10.66;40.70
79692;BME280;69158;55.592;37.610;2023-04-24T01:31:19;99289.63;;;10.72;40.20
79692;BME280;69158;55.592;37.610;2023-04-24T01:34:06;99298.13;;;10.74;40.72
79692;BME280;69158;55.592;37.610;2023-04-24T01:36:52;99288.00;;;10.71;39.85
79692;BME280;69158;55.592;37.610;2023-04-24T01:39:38;99305.25;;;10.80;38.98
79692;BME280;69158;55.592;37.610;2023-04-24T01:42:24;99299.50;;;10.70;41.82
79692;BME280;69158;55.592;37.610;2023-04-24T01:45:11;99302.41;;;10.54;42.35
79692;BME280;69158;55.592;37.610;2023-04-24T01:47:58;99294.16;;;10.36;42.49
79692;BME280;69158;55.592;37.610;2023-04-24T01:50:45;99287.63;;;10.25;41.60
79692;BME280;69158;55.592;37.610;2023-04-24T01:53:31;99278.94;;;10.25;41.66
79692;BME280;69158;55.592;37.610;2023-04-24T01:56:18;99289.47;;;10.31;41.65
79692;BME280;69158;55.592;37.610;2023-04-24T01:59:05;99287.41;;;10.27;41.78
79692;BME280;69158;55.592;37.610;2023-04-24T02:01:51;99278.06;;;10.18;42.42
79692;BME280;69158;55.592;37.610;2023-04-24T02:04:37;99290.81;;;10.21;43.46
79692;BME280;69158;55.592;37.610;2023-04-24T02:07:23;99282.22;;;10.12;43.02
79692;BME280;69158;55.592;37.610;2023-04-24T02:10:10;99295.22;;;10.20;42.22
79692;BME280;69158;55.592;37.610;2023-04-24T02:12:57;99298.91;;;10.26;42.83
79692;BME280;69158;55.592;37.610;2023-04-24T02:15:45;99282.94;;;10.06;43.16
79692;BME280;69158;55.592;37.610;2023-04-24T02:18:32;99299.75;;;10.12;42.94
79692;BME280;69158;55.592;37.610;2023-04-24T02:21:18;99290.53;;;10.01;43.10
79692;BME280;69158;55.592;37.610;2023-04-24T02:24:04;99299.75;;;10.12;43.20
79692;BME280;69158;55.592;37.610;2023-04-24T02:26:50;99297.59;;;10.15;42.61
79692;BME280;69158;55.592;37.610;2023-04-24T02:29:35;99310.16;;;10.20;42.81
79692;BME280;69158;55.592;37.610;2023-04-24T02:32:21;99291.50;;;10.15;41.52
79692;BME280;69158;55.592;37.610;2023-04-24T02:35:08;99304.34;;;10.24;41.00
79692;BME280;69158;55.592;37.610;2023-04-24T02:37:54;99309.84;;;10.29;42.13
79692;BME280;69158;55.592;37.610;2023-04-24T02:40:40;99286.94;;;10.17;41.96
79692;BME280;69158;55.592;37.610;2023-04-24T02:43:26;99309.72;;;10.37;40.78
79692;BME280;69158;55.592;37.610;2023-04-24T02:46:12;99314.22;;;10.43;41.64
79692;BME280;69158;55.592;37.610;2023-04-24T02:48:58;99295.34;;;10.33;42.04
79692;BME280;69158;55.592;37.610;2023-04-24T02:51:43;99314.44;;;10.48;42.30
79692;BME280;69158;55.592;37.610;2023-04-24T02:54:29;99324.63;;;10.58;41.35
79692;BME280;69158;55.592;37.610;2023-04-24T02:57:15;99318.41;;;10.59;41.41
79692;BME280;69158;55.592;37.610;2023-04-24T03:00:02;99333.19;;;10.67;41.49
79692;BME280;69158;55.592;37.610;2023-04-24T03:02:48;99330.81;;;10.72;40.23
79692;BME280;69158;55.592;37.610;2023-04-24T03:05:35;99324.97;;;10.70;42.21
79692;BME280;69158;55.592;37.610;2023-04-24T03:08:22;99315.06;;;10.72;41.13
79692;BME280;69158;55.592;37.610;2023-04-24T03:11:08;99317.41;;;10.88;41.02
79692;BME280;69158;55.592;37.610;2023-04-24T03:13:54;99332.91;;;11.04;40.50
79692;BME280;69158;55.592;37.610;2023-04-24T03:16:40;99331.94;;;11.12;40.90
79692;BME280;69158;55.592;37.610;2023-04-24T03:19:26;99325.13;;;11.17;40.32
79692;BME280;69158;55.592;37.610;2023-04-24T03:22:12;99320.31;;;11.27;39.97
79692;BME280;69158;55.592;37.610;2023-04-24T03:24:58;99332.19;;;11.51;38.67
79692;BME280;69158;55.592;37.610;2023-04-24T03:27:44;99332.25;;;11.64;38.06
79692;BME280;69158;55.592;37.610;2023-04-24T03:30:30;99334.53;;;11.74;39.40
79692;BME280;69158;55.592;37.610;2023-04-24T03:33:16;99341.88;;;11.85;38.73
79692;BME280;69158;55.592;37.610;2023-04-24T03:36:02;99339.31;;;11.98;38.51
79692;BME280;69158;55.592;37.610;2023-04-24T03:38:48;99333.66;;;12.01;37.92
79692;BME280;69158;55.592;37.610;2023-04-24T03:41:34;99311.38;;;12.04;37.75
79692;BME280;69158;55.592;37.610;2023-04-24T03:44:20;99341.03;;;12.39;37.47
79692;BME280;69158;55.592;37.610;2023-04-24T03:47:06;99335.59;;;12.47;37.54
79692;BME280;69158;55.592;37.610;2023-04-24T03:49:52;99340.25;;;12.58;36.99
79692;BME280;69158;55.592;37.610;2023-04-24T03:52:41;99334.19;;;12.70;36.86
79692;BME280;69158;55.592;37.610;2023-04-24T03:55:27;99314.34;;;12.68;37.03
79692;BME280;69158;55.592;37.610;2023-04-24T03:58:13;99336.00;;;12.83;36.59
79692;BME280;69158;55.592;37.610;2023-04-24T04:01:01;99343.94;;;13.03;36.75
79692;BME280;69158;55.592;37.610;2023-04-24T04:03:47;99352.22;;;13.06;36.02
79692;BME280;69158;55.592;37.610;2023-04-24T04:06:34;99342.31;;;13.22;35.59
79692;BME280;69158;55.592;37.610;2023-04-24T04:09:21;99341.06;;;13.31;35.20
79692;BME280;69158;55.592;37.610;2023-04-24T04:12:07;99333.16;;;13.31;35.35
79692;BME280;69158;55.592;37.610;2023-04-24T04:14:53;99356.84;;;13.50;35.22
79692;BME280;69158;55.592;37.610;2023-04-24T04:17:39;99351.34;;;13.65;35.16
79692;BME280;69158;55.592;37.610;2023-04-24T04:20:25;99357.59;;;13.77;34.77
79692;BME280;69158;55.592;37.610;2023-04-24T04:23:14;99364.88;;;13.88;33.67
79692;BME280;69158;55.592;37.610;2023-04-24T04:26:01;99364.28;;;13.80;34.00
79692;BME280;69158;55.592;37.610;2023-04-24T04:28:47;99351.78;;;13.49;34.90
79692;BME280;69158;55.592;37.610;2023-04-24T04:31:34;99360.72;;;13.54;35.05
79692;BME280;69158;55.592;37.610;2023-04-24T04:34:20;99362.28;;;13.69;34.82
79692;BME280;69158;55.592;37.610;2023-04-24T04:37:06;99355.19;;;13.76;34.39
79692;BME280;69158;55.592;37.610;2023-04-24T04:39:52;99364.94;;;13.62;34.71
79692;BME280;69158;55.592;37.610;2023-04-24T04:42:39;99358.25;;;13.59;34.81
79692;BME280;69158;55.592;37.610;2023-04-24T04:45:28;99363.44;;;13.92;35.01
79692;BME280;69158;55.592;37.610;2023-04-24T04:48:14;99365.38;;;14.10;34.43
79692;BME280;69158;55.592;37.610;2023-04-24T04:51:03;99368.03;;;14.03;34.72
79692;BME280;69158;55.592;37.610;2023-04-24T04:53:49;99355.47;;;14.05;34.96
79692;BME280;69158;55.592;37.610;2023-04-24T04:56:35;99356.84;;;14.15;34.69
79692;BME280;69158;55.592;37.610;2023-04-24T04:59:21;99364.66;;;14.34;34.89
79692;BME280;69158;55.592;37.610;2023-04-24T05:02:07;99364.84;;;14.33;34.73
79692;BME280;69158;55.592;37.610;2023-04-24T05:04:53;99368.25;;;14.46;34.93
79692;BME280;69158;55.592;37.610;2023-04-24T05:07:40;99364.16;;;14.50;34.87
79692;BME280;69158;55.592;37.610;2023-04-24T05:10:26;99374.63;;;14.70;34.89
79692;BME280;69158;55.592;37.610;2023-04-24T05:13:12;99362.34;;;14.82;34.07
79692;BME280;69158;55.592;37.610;2023-04-24T05:15:57;99373.19;;;14.99;34.13
79692;BME280;69158;55.592;37.610;2023-04-24T05:18:43;99373.00;;;15.19;33.60
79692;BME280;69158;55.592;37.610;2023-04-24T05:21:29;99363.28;;;15.37;33.04
79692;BME280;69158;55.592;37.610;2023-04-24T05:24:16;99365.84;;;15.51;32.44
79692;BME280;69158;55.592;37.610;2023-04-24T05:27:02;99373.25;;;15.60;32.50
79692;BME280;69158;55.592;37.610;2023-04-24T05:29:50;99378.25;;;15.68;32.34
79692;BME280;69158;55.592;37.610;2023-04-24T05:32:36;99357.53;;;15.83;31.31
79692;BME280;69158;55.592;37.610;2023-04-24T05:35:22;99378.63;;;16.08;30.84
79692;BME280;69158;55.592;37.610;2023-04-24T05:38:08;99371.19;;;16.17;31.05
79692;BME280;69158;55.592;37.610;2023-04-24T05:40:54;99368.78;;;16.27;29.95
79692;BME280;69158;55.592;37.610;2023-04-24T05:43:40;99372.34;;;16.51;30.24
79692;BME280;69158;55.592;37.610;2023-04-24T05:46:26;99367.56;;;16.59;30.03
79692;BME280;69158;55.592;37.610;2023-04-24T05:49:12;99365.28;;;16.74;29.90
79692;BME280;69158;55.592;37.610;2023-04-24T05:51:59;99365.09;;;16.88;29.54
79692;BME280;69158;55.592;37.610;2023-04-24T05:54:45;99372.84;;;17.01;29.30
79692;BME280;69158;55.592;37.610;2023-04-24T05:57:33;99363.50;;;16.98;29.15
79692;BME280;69158;55.592;37.610;2023-04-24T06:00:20;99363.84;;;16.90;29.00
79692;BME280;69158;55.592;37.610;2023-04-24T06:03:05;99367.91;;;17.16;29.12
79692;BME280;69158;55.592;37.610;2023-04-24T06:05:51;99367.22;;;17.55;28.15
79692;BME280;69158;55.592;37.610;2023-04-24T06:08:38;99361.72;;;18.37;27.30
79692;BME280;69158;55.592;37.610;2023-04-24T06:11:24;99358.19;;;19.65;25.01
79692;BME280;69158;55.592;37.610;2023-04-24T06:14:10;99361.31;;;21.07;22.93
79692;BME280;69158;55.592;37.610;2023-04-24T06:16:56;99345.16;;;21.71;21.51
79692;BME280;69158;55.592;37.610;2023-04-24T06:19:42;99360.72;;;21.84;21.88
79692;BME280;69158;55.592;37.610;2023-04-24T06:22:28;99359.91;;;22.66;21.78
79692;BME280;69158;55.592;37.610;2023-04-24T06:25:14;99350.81;;;23.23;20.44
79692;BME280;69158;55.592;37.610;2023-04-24T06:28:00;99350.28;;;23.46;20.15
79692;BME280;69158;55.592;37.610;2023-04-24T06:30:50;99349.88;;;23.88;19.45
79692;BME280;69158;55.592;37.610;2023-04-24T06:33:36;99349.91;;;24.37;18.85
79692;BME280;69158;55.592;37.610;2023-04-24T06:36:22;99366.94;;;24.61;18.66
79692;BME280;69158;55.592;37.610;2023-04-24T06:39:08;99365.28;;;25.04;17.49
79692;BME280;69158;55.592;37.610;2023-04-24T06:41:54;99361.72;;;25.14;18.05
79692;BME280;69158;55.592;37.610;2023-04-24T06:44:43;99355.22;;;24.81;17.92
79692;BME280;69158;55.592;37.610;2023-04-24T06:47:32;99361.84;;;25.56;17.59
79692;BME280;69158;55.592;37.610;2023-04-24T06:50:18;99352.84;;;26.32;16.17
79692;BME280;69158;55.592;37.610;2023-04-24T06:53:04;99362.25;;;26.35;16.39
79692;BME280;69158;55.592;37.610;2023-04-24T06:55:50;99368.19;;;27.20;16.16
79692;BME280;69158;55.592;37.610;2023-04-24T06:58:36;99360.22;;;27.29;16.04
79692;BME280;69158;55.592;37.610;2023-04-24T07:01:22;99367.50;;;27.42;15.78
79692;BME280;69158;55.592;37.610;2023-04-24T07:04:08;99357.69;;;27.65;15.51
79692;BME280;69158;55.592;37.610;2023-04-24T07:06:54;99352.16;;;28.24;13.82
79692;BME280;69158;55.592;37.610;2023-04-24T07:09:41;99360.31;;;28.33;14.23
79692;BME280;69158;55.592;37.610;2023-04-24T07:12:28;99350.72;;;28.27;14.20
79692;BME280;69158;55.592;37.610;2023-04-24T07:15:16;99365.50;;;28.65;12.27
79692;BME280;69158;55.592;37.610;2023-04-24T07:18:02;99360.59;;;27.36;13.49
79692;BME280;69158;55.592;37.610;2023-04-24T07:20:48;99369.16;;;27.70;13.12
79692;BME280;69158;55.592;37.610;2023-04-24T07:23:37;99371.72;;;27.02;13.83
79692;BME280;69158;55.592;37.610;2023-04-24T07:26:23;99361.91;;;27.25;13.55
79692;BME280;69158;55.592;37.610;2023-04-24T07:29:09;99363.72;;;26.97;14.23
79692;BME280;69158;55.592;37.610;2023-04-24T07:31:55;99352.28;;;27.65;13.73
79692;BME280;69158;55.592;37.610;2023-04-24T07:34:42;99365.56;;;27.75;13.48
79692;BME280;69158;55.592;37.610;2023-04-24T07:37:28;99359.25;;;27.79;12.77
79692;BME280;69158;55.592;37.610;2023-04-24T07:40:14;99360.53;;;28.23;12.21
79692;BME280;69158;55.592;37.610;2023-04-24T07:43:00;99359.44;;;28.24;12.58
79692;BME280;69158;55.592;37.610;2023-04-24T07:45:46;99364.47;;;29.19;12.15
79692;BME280;69158;55.592;37.610;2023-04-24T07:48:32;99350.16;;;29.89;11.04
79692;BME280;69158;55.592;37.610;2023-04-24T07:51:18;99352.88;;;29.89;11.83
79692;BME280;69158;55.592;37.610;2023-04-24T07:54:05;99345.63;;;30.41;10.67
79692;BME280;69158;55.592;37.610;2023-04-24T07:56:53;99345.69;;;28.92;12.02
79692;BME280;69158;55.592;37.610;2023-04-24T07:59:39;99348.50;;;29.32;11.47
79692;BME280;69158;55.592;37.610;2023-04-24T08:02:26;99346.66;;;28.02;12.46
79692;BME280;69158;55.592;37.610;2023-04-24T08:05:12;99337.22;;;28.27;11.86
79692;BME280;69158;55.592;37.610;2023-04-24T08:07:58;99328.81;;;28.86;11.57
79692;BME280;69158;55.592;37.610;2023-04-24T08:10:44;99344.38;;;29.82;11.35
79692;BME280;69158;55.592;37.610;2023-04-24T08:13:30;99327.72;;;30.92;10.10
79692;BME280;69158;55.592;37.610;2023-04-24T08:16:16;99324.72;;;30.33;10.52
79692;BME280;69158;55.592;37.610;2023-04-24T08:19:02;99335.56;;;30.85;10.48
79692;BME280;69158;55.592;37.610;2023-04-24T08:21:48;99325.25;;;30.52;10.03
79692;BME280;69158;55.592;37.610;2023-04-24T08:24:34;99323.31;;;30.61;9.63
79692;BME280;69158;55.592;37.610;2023-04-24T08:27:20;99313.06;;;30.93;9.79
79692;BME280;69158;55.592;37.610;2023-04-24T08:30:07;99332.56;;;32.29;9.11
79692;BME280;69158;55.592;37.610;2023-04-24T08:33:27;99329.06;;;33.15;8.66
79692;BME280;69158;55.592;37.610;2023-04-24T08:36:18;99325.97;;;33.05;8.65
79692;BME280;69158;55.592;37.610;2023-04-24T08:39:05;99327.16;;;32.83;8.68
79692;BME280;69158;55.592;37.610;2023-04-24T08:41:52;99320.13;;;32.82;8.45
79692;BME280;69158;55.592;37.610;2023-04-24T08:44:38;99314.44;;;31.92;9.59
79692;BME280;69158;55.592;37.610;2023-04-24T08:47:25;99314.06;;;31.93;10.00
79692;BME280;69158;55.592;37.610;2023-04-24T08:50:12;99313.59;;;32.21;9.18
79692;BME280;69158;55.592;37.610;2023-04-24T08:52:58;99306.03;;;32.06;9.42
79692;BME280;69158;55.592;37.610;2023-04-24T08:55:47;99293.19;;;32.35;9.40
79692;BME280;69158;55.592;37.610;2023-04-24T08:58:33;99299.13;;;33.15;8.83
79692;BME280;69158;55.592;37.610;2023-04-24T09:01:19;99286.00;;;31.89;8.94
79692;BME280;69158;55.592;37.610;2023-04-24T09:04:12;99288.63;;;31.10;9.86
79692;BME280;69158;55.592;37.610;2023-04-24T09:07:00;99286.72;;;31.48;9.48
79692;BME280;69158;55.592;37.610;2023-04-24T09:09:48;99302.19;;;32.48;9.03
79692;BME280;69158;55.592;37.610;2023-04-24T09:12:36;99295.13;;;33.01;8.87
79692;BME280;69158;55.592;37.610;2023-04-24T09:15:22;99290.63;;;33.41;8.26
79692;BME280;69158;55.592;37.610;2023-04-24T09:18:07;99290.81;;;32.67;8.30
79692;BME280;69158;55.592;37.610;2023-04-24T09:21:06;99287.09;;;31.68;9.30
79692;BME280;69158;55.592;37.610;2023-04-24T09:24:05;99282.31;;;32.15;9.39
79692;BME280;69158;55.592;37.610;2023-04-24T09:26:57;99293.59;;;32.79;8.94
79692;BME280;69158;55.592;37.610;2023-04-24T09:29:56;99295.28;;;33.16;8.30
79692;BME280;69158;55.592;37.610;2023-04-24T09:32:42;99280.13;;;32.82;8.24
79692;BME280;69158;55.592;37.610;2023-04-24T09:35:28;99276.13;;;32.14;8.91
79692;BME280;69158;55.592;37.610;2023-04-24T09:38:14;99275.78;;;32.69;8.42
79692;BME280;69158;55.592;37.610;2023-04-24T09:41:07;99282.06;;;32.61;7.82
79692;BME280;69158;55.592;37.610;2023-04-24T09:43:56;99268.28;;;32.13;8.64
79692;BME280;69158;55.592;37.610;2023-04-24T09:46:45;99273.63;;;32.01;9.11
79692;BME280;69158;55.592;37.610;2023-04-24T09:49:31;99269.38;;;32.86;8.52
79692;BME280;69158;55.592;37.610;2023-04-24T09:52:21;99266.25;;;31.22;9.20
79692;BME280;69158;55.592;37.610;2023-04-24T09:55:19;99262.28;;;30.47;9.86
79692;BME280;69158;55.592;37.610;2023-04-24T09:58:08;99255.44;;;30.58;9.55
79692;BME280;69158;55.592;37.610;2023-04-24T10:00:56;99269.75;;;31.22;9.66
79692;BME280;69158;55.592;37.610;2023-04-24T10:03:42;99233.13;;;30.99;9.50
79692;BME280;69158;55.592;37.610;2023-04-24T10:06:37;99263.34;;;30.80;9.82
79692;BME280;69158;55.592;37.610;2023-04-24T10:09:25;99252.56;;;30.63;9.61
79692;BME280;69158;55.592;37.610;2023-04-24T10:12:14;99263.13;;;31.70;8.85
79692;BME280;69158;55.592;37.610;2023-04-24T10:15:02;99247.78;;;31.74;8.95
79692;BME280;69158;55.592;37.610;2023-04-24T10:17:51;99236.53;;;31.84;8.44
79692;BME280;69158;55.592;37.610;2023-04-24T10:20:43;99250.84;;;29.33;10.38
79692;BME280;69158;55.592;37.610;2023-04-24T10:23:30;99252.16;;;27.80;11.56
79692;BME280;69158;55.592;37.610;2023-04-24T10:26:17;99252.25;;;25.91;12.96
79692;BME280;69158;55.592;37.610;2023-04-24T10:29:05;99242.69;;;25.37;13.21
79692;BME280;69158;55.592;37.610;2023-04-24T10:31:58;99247.84;;;25.10;13.52
79692;BME280;69158;55.592;37.610;2023-04-24T10:34:44;99243.38;;;27.06;12.81
79692;BME280;69158;55.592;37.610;2023-04-24T10:37:35;99239.00;;;29.20;10.88
79692;BME280;69158;55.592;37.610;2023-04-24T10:40:27;99241.09;;;30.23;9.72
79692;BME280;69158;55.592;37.610;2023-04-24T10:43:17;99234.72;;;30.53;9.59
79692;BME280;69158;55.592;37.610;2023-04-24T10:46:07;99230.53;;;30.64;9.11
79692;BME280;69158;55.592;37.610;2023-04-24T10:48:55;99233.56;;;29.12;10.55
79692;BME280;69158;55.592;37.610;2023-04-24T10:51:50;99233.63;;;28.67;11.00
79692;BME280;69158;55.592;37.610;2023-04-24T10:54:46;99231.75;;;27.87;11.86
79692;BME280;69158;55.592;37.610;2023-04-24T10:57:36;99235.13;;;26.19;12.62
79692;BME280;69158;55.592;37.610;2023-04-24T11:00:26;99226.28;;;25.39;13.53
79692;BME280;69158;55.592;37.610;2023-04-24T11:03:50;99220.34;;;27.55;11.69
79692;BME280;69158;55.592;37.610;2023-04-24T11:06:36;99198.88;;;28.74;10.75
79692;BME280;69158;55.592;37.610;2023-04-24T11:09:27;99196.06;;;28.57;11.14
79692;BME280;69158;55.592;37.610;2023-04-24T11:12:29;99201.97;;;28.59;10.82
79692;BME280;69158;55.592;37.610;2023-04-24T11:15:15;99217.00;;;29.61;9.91
79692;BME280;69158;55.592;37.610;2023-04-24T11:18:05;99204.97;;;29.93;10.19
79692;BME280;69158;55.592;37.610;2023-04-24T11:20:54;99195.00;;;30.57;9.25
79692;BME280;69158;55.592;37.610;2023-04-24T11:23:43;99191.56;;;31.95;8.56
79692;BME280;69158;55.592;37.610;2023-04-24T11:26:37;99207.03;;;31.53;8.28
79692;BME280;69158;55.592;37.610;2023-04-24T11:29:44;99204.34;;;30.77;8.77
79692;BME280;69158;55.592;37.610;2023-04-24T11:32:40;99196.94;;;30.48;10.03
79692;BME280;69158;55.592;37.610;2023-04-24T11:35:28;99152.41;;;30.67;9.63
79692;BME280;69158;55.592;37.610;2023-04-24T11:38:17;99161.31;;;30.76;9.67
79692;BME280;69158;55.592;37.610;2023-04-24T11:41:03;99163.91;;;31.31;9.26
79692;BME280;69158;55.592;37.610;2023-04-24T11:43:52;99177.53;;;31.72;8.40
79692;BME280;69158;55.592;37.610;2023-04-24T11:46:40;99163.81;;;30.81;8.94
79692;BME280;69158;55.592;37.610;2023-04-24T11:49:26;99141.03;;;30.27;10.15
79692;BME280;69158;55.592;37.610;2023-04-24T11:52:15;99145.28;;;30.91;9.10
79692;BME280;69158;55.592;37.610;2023-04-24T11:55:02;99143.34;;;31.50;8.86
79692;BME280;69158;55.592;37.610;2023-04-24T11:57:50;99157.41;;;32.06;8.32
79692;BME280;69158;55.592;37.610;2023-04-24T12:00:37;99154.00;;;31.97;8.21
79692;BME280;69158;55.592;37.610;2023-04-24T12:03:26;99139.09;;;32.03;8.40
79692;BME280;69158;55.592;37.610;2023-04-24T12:06:15;99127.09;;;31.71;8.33
79692;BME280;69158;55.592;37.610;2023-04-24T12:09:01;99145.53;;;31.36;8.96
79692;BME280;69158;55.592;37.610;2023-04-24T12:11:56;99145.41;;;31.03;8.90
79692;BME280;69158;55.592;37.610;2023-04-24T12:14:48;99122.81;;;30.91;9.57
79692;BME280;69158;55.592;37.610;2023-04-24T12:17:35;99107.00;;;31.01;9.06
79692;BME280;69158;55.592;37.610;2023-04-24T12:20:31;99123.91;;;31.28;8.69
79692;BME280;69158;55.592;37.610;2023-04-24T12:23:34;99108.78;;;30.51;10.03
79692;BME280;69158;55.592;37.610;2023-04-24T12:26:23;99135.84;;;30.97;8.98
79692;BME280;69158;55.592;37.610;2023-04-24T12:29:10;99131.72;;;31.00;9.01
79692;BME280;69158;55.592;37.610;2023-04-24T12:31:59;99120.94;;;31.12;8.63
79692;BME280;69158;55.592;37.610;2023-04-24T12:34:46;99111.06;;;30.40;9.11
79692;BME280;69158;55.592;37.610;2023-04-24T12:37:33;99133.84;;;30.39;9.45
79692;BME280;69158;55.592;37.610;2023-04-24T12:40:21;99126.69;;;30.35;9.37
79692;BME280;69158;55.592;37.610;2023-04-24T12:43:18;99130.41;;;30.13;10.05
79692;BME280;69158;55.592;37.610;2023-04-24T12:46:05;99109.88;;;30.96;8.59
79692;BME280;69158;55.592;37.610;2023-04-24T12:48:51;99095.09;;;29.49;8.89
79692;BME280;69158;55.592;37.610;2023-04-24T12:51:37;99121.66;;;29.64;9.84
79692;BME280;69158;55.592;37.610;2023-04-24T12:54:23;99107.31;;;30.15;9.17
79692;BME280;69158;55.592;37.610;2023-04-24T12:57:09;99103.69;;;29.51;9.49
79692;BME280;69158;55.592;37.610;2023-04-24T12:59:56;99104.53;;;28.95;9.95
79692;BME280;69158;55.592;37.610;2023-04-24T13:02:42;99085.84;;;28.68;9.64
79692;BME280;69158;55.592;37.610;2023-04-24T13:05:28;99088.94;;;28.83;9.96
79692;BME280;69158;55.592;37.610;2023-04-24T13:08:14;99096.25;;;28.92;9.70
79692;BME280;69158;55.592;37.610;2023-04-24T13:11:00;99094.41;;;28.30;10.11
79692;BME280;69158;55.592;37.610;2023-04-24T13:13:46;99087.91;;;28.31;10.46
79692;BME280;69158;55.592;37.610;2023-04-24T13:16:32;99099.50;;;28.63;10.23
79692;BME280;69158;55.592;37.610;2023-04-24T13:19:18;99074.84;;;27.94;10.54
79692;BME280;69158;55.592;37.610;2023-04-24T13:22:04;99090.53;;;28.45;10.34
79692;BME280;69158;55.592;37.610;2023-04-24T13:24:51;99100.53;;;28.14;10.21
79692;BME280;69158;55.592;37.610;2023-04-24T13:27:39;99097.63;;;28.32;10.05
79692;BME280;69158;55.592;37.610;2023-04-24T13:30:25;99089.25;;;28.73;9.84
79692;BME280;69158;55.592;37.610;2023-04-24T13:33:11;99096.00;;;28.31;10.80
79692;BME280;69158;55.592;37.610;2023-04-24T13:35:59;99055.91;;;27.85;10.16
79692;BME280;69158;55.592;37.610;2023-04-24T13:38:53;99089.13;;;27.94;10.47
79692;BME280;69158;55.592;37.610;2023-04-24T13:41:39;99082.19;;;27.22;11.19
79692;BME280;69158;55.592;37.610;2023-04-24T13:44:25;99075.97;;;27.35;11.28
79692;BME280;69158;55.592;37.610;2023-04-24T13:47:11;99078.53;;;27.40;11.08
79692;BME280;69158;55.592;37.610;2023-04-24T13:49:57;99079.50;;;27.22;11.35
79692;BME280;69158;55.592;37.610;2023-04-24T13:52:43;99082.69;;;27.24;11.38
79692;BME280;69158;55.592;37.610;2023-04-24T13:55:29;99063.22;;;27.27;11.43
79692;BME280;69158;55.592;37.610;2023-04-24T13:58:16;99077.47;;;27.85;10.46
79692;BME280;69158;55.592;37.610;2023-04-24T14:01:02;99073.69;;;27.64;11.16
79692;BME280;69158;55.592;37.610;2023-04-24T14:03:49;99060.56;;;27.49;10.87
79692;BME280;69158;55.592;37.610;2023-04-24T14:06:35;99065.53;;;27.06;11.41
79692;BME280;69158;55.592;37.610;2023-04-24T14:09:21;99047.00;;;26.77;11.69
79692;BME280;69158;55.592;37.610;2023-04-24T14:12:07;99046.13;;;26.41;11.94
79692;BME280;69158;55.592;37.610;2023-04-24T14:14:56;99050.81;;;26.22;11.98
79692;BME280;69158;55.592;37.610;2023-04-24T14:17:42;99035.00;;;25.88;11.97
79692;BME280;69158;55.592;37.610;2023-04-24T14:20:28;99051.22;;;25.64;12.41
79692;BME280;69158;55.592;37.610;2023-04-24T14:23:14;99048.19;;;25.33;12.83
79692;BME280;69158;55.592;37.610;2023-04-24T14:26:03;99061.56;;;25.01;12.95
79692;BME280;69158;55.592;37.610;2023-04-24T14:28:49;99056.16;;;24.58;13.46
79692;BME280;69158;55.592;37.610;2023-04-24T14:31:35;99052.41;;;24.59;12.80
79692;BME280;69158;55.592;37.610;2023-04-24T14:34:20;99029.28;;;23.04;14.39
79692;BME280;69158;55.592;37.610;2023-04-24T14:37:07;99063.59;;;22.17;15.46
79692;BME280;69158;55.592;37.610;2023-04-24T14:39:53;99026.22;;;21.57;15.59